createdAt,value
2022-08-03T00:00:41.333Z,93146.81
2022-08-03T00:03:24.311Z,93140.19
2022-08-03T00:06:07.373Z,93146.41
2022-08-03T00:08:50.484Z,93146.63
2022-08-03T00:11:33.644Z,93147.66
2022-08-03T00:14:16.662Z,93144.44
2022-08-03T00:17:00.969Z,93148.06
2022-08-03T00:19:43.939Z,93148.44
2022-08-03T00:22:26.912Z,93148.66
2022-08-03T00:25:09.972Z,93148.66
2022-08-03T00:27:52.947Z,93147.84
2022-08-03T00:30:36.849Z,93148.66
2022-08-03T00:33:21.139Z,93151.28
2022-08-03T00:36:05.209Z,93147.84
2022-08-03T00:38:48.258Z,93151.47
2022-08-03T00:41:31.844Z,93146.47
2022-08-03T00:44:14.831Z,93150.06
2022-08-03T00:46:58.046Z,93143.25
2022-08-03T00:49:43.560Z,93144.47
2022-08-03T00:52:26.391Z,93144.66
2022-08-03T00:55:10.494Z,93140.44
2022-08-03T00:57:54.225Z,93147.66
2022-08-03T01:00:38.938Z,93143.88
2022-08-03T01:03:21.868Z,93151.91
2022-08-03T01:06:17.846Z,93147.09
2022-08-03T01:09:04.780Z,93138.66
2022-08-03T01:12:00.543Z,93145.69
2022-08-03T01:14:57.453Z,93136.25
2022-08-03T01:17:48.301Z,93142.47
2022-08-03T01:20:35.275Z,93141.69
2022-08-03T01:23:50.225Z,93139.25
2022-08-03T01:26:49.895Z,93139.25
2022-08-03T01:30:00.832Z,93133.44
2022-08-03T01:32:59.547Z,93130.03
2022-08-03T01:35:46.581Z,93131.66
2022-08-03T01:38:34.189Z,93127.44
2022-08-03T01:41:21.295Z,93124.00
2022-08-03T01:44:28.399Z,93127.63
2022-08-03T01:47:13.837Z,93132.03
2022-08-03T01:49:58.731Z,93121.00
2022-08-03T01:52:45.150Z,93123.63
2022-08-03T01:55:30.117Z,93122.00
2022-08-03T01:58:16.297Z,93118.78
2022-08-03T02:01:02.186Z,93116.41
2022-08-03T02:03:56.713Z,93119.41
2022-08-03T02:07:01.986Z,93116.19
2022-08-03T02:09:50.247Z,93116.19
2022-08-03T02:12:35.278Z,93119.81
2022-08-03T02:15:20.461Z,93115.59
2022-08-03T02:18:06.094Z,93117.41
2022-08-03T02:20:51.502Z,93115.00
2022-08-03T02:23:34.989Z,93112.38
2022-08-03T02:26:22.588Z,93112.59
2022-08-03T02:29:11.303Z,93114.41
2022-08-03T02:32:00.103Z,93111.19
2022-08-03T02:34:47.137Z,93110.78
2022-08-03T02:37:35.541Z,93112.81
2022-08-03T02:40:20.401Z,93103.56
2022-08-03T02:43:06.438Z,93102.78
2022-08-03T02:45:51.305Z,93108.00
2022-08-03T02:48:37.732Z,93106.56
2022-08-03T02:51:22.083Z,93105.78
2022-08-03T02:54:08.318Z,93110.38
2022-08-03T02:56:53.103Z,93106.16
2022-08-03T02:59:36.824Z,93106.38
2022-08-03T03:02:21.466Z,93109.38
2022-08-03T03:05:55.137Z,93102.75
2022-08-03T03:08:18.003Z,93111.75
2022-08-03T03:11:03.554Z,93108.56
2022-08-03T03:13:47.776Z,93114.97
2022-08-03T03:16:32.284Z,93113.59
2022-08-03T03:19:16.992Z,93114.59
2022-08-03T03:22:01.638Z,93112.97
2022-08-03T03:24:45.941Z,93115.59
2022-08-03T03:27:30.907Z,93111.16
2022-08-03T03:30:15.995Z,93115.78
2022-08-03T03:32:59.653Z,93116.59
2022-08-03T03:35:45.647Z,93108.56
2022-08-03T03:38:28.918Z,93106.75
2022-08-03T03:41:12.081Z,93110.97
2022-08-03T03:43:56.794Z,93115.19
2022-08-03T03:46:40.021Z,93109.16
2022-08-03T03:49:23.237Z,93114.38
2022-08-03T03:52:07.200Z,93114.38
2022-08-03T03:54:50.509Z,93114.38
2022-08-03T03:57:35.143Z,93113.38
2022-08-03T04:00:20.958Z,93115.19
2022-08-03T04:03:04.094Z,93119.41
2022-08-03T04:06:04.790Z,93122.81
2022-08-03T04:09:13.669Z,93123.59
2022-08-03T04:12:01.777Z,93126.19
2022-08-03T04:14:45.400Z,93128.81
2022-08-03T04:17:32.086Z,93130.63
2022-08-03T04:20:16.755Z,93130.63
2022-08-03T04:23:01.538Z,93135.63
2022-08-03T04:25:45.027Z,93132.84
2022-08-03T04:28:31.841Z,93133.63
2022-08-03T04:31:16.690Z,93143.88
2022-08-03T04:34:01.586Z,93135.25
2022-08-03T04:36:48.834Z,93134.06
2022-08-03T04:39:33.916Z,93147.69
2022-08-03T04:42:17.999Z,93143.06
2022-08-03T04:45:03.885Z,93142.66
2022-08-03T04:47:47.318Z,93149.13
2022-08-03T04:50:32.371Z,93147.91
2022-08-03T04:53:21.404Z,93147.53
2022-08-03T04:56:08.804Z,93148.13
2022-08-03T04:58:51.928Z,93144.91
2022-08-03T05:01:35.070Z,93150.50
2022-08-03T05:04:18.382Z,93145.91
2022-08-03T05:07:12.543Z,93145.31
2022-08-03T05:10:01.510Z,93146.50
2022-08-03T05:12:48.720Z,93144.31
2022-08-03T05:15:31.819Z,93151.72
2022-08-03T05:18:14.879Z,93144.28
2022-08-03T05:20:57.975Z,93149.69
2022-08-03T05:23:42.490Z,93148.06
2022-08-03T05:26:25.957Z,93151.88
2022-08-03T05:29:09.870Z,93144.84
2022-08-03T05:31:52.925Z,93150.47
2022-08-03T05:34:36.032Z,93151.06
2022-08-03T05:37:19.175Z,93146.44
2022-08-03T05:40:04.139Z,93150.25
2022-08-03T05:42:47.170Z,93150.41
2022-08-03T05:45:30.401Z,93152.22
2022-08-03T05:48:13.501Z,93147.19
2022-08-03T05:50:56.513Z,93147.59
2022-08-03T05:53:40.021Z,93146.19
2022-08-03T05:56:25.935Z,93145.97
2022-08-03T05:59:35.801Z,93148.97
2022-08-03T06:02:12.954Z,93147.94
2022-08-03T06:04:56.091Z,93148.13
2022-08-03T06:07:39.250Z,93137.84
2022-08-03T06:10:35.816Z,93139.63
2022-08-03T06:13:22.103Z,93145.63
2022-08-03T06:16:05.624Z,93140.34
2022-08-03T06:18:48.687Z,93142.56
2022-08-03T06:21:31.758Z,93138.72
2022-08-03T06:24:14.885Z,93144.13
2022-08-03T06:26:58.520Z,93146.31
2022-08-03T06:29:42.885Z,93146.91
2022-08-03T06:32:25.963Z,93147.28
2022-08-03T06:35:10.394Z,93153.72
2022-08-03T06:37:53.421Z,93151.47
2022-08-03T06:40:40.070Z,93152.06
2022-08-03T06:43:23.095Z,93142.75
2022-08-03T06:46:07.623Z,93151.41
2022-08-03T06:48:50.768Z,93157.59
2022-08-03T06:52:03.226Z,93154.34
2022-08-03T06:54:37.015Z,93163.38
2022-08-03T06:57:20.168Z,93158.53
2022-08-03T07:00:09.608Z,93155.47
2022-08-03T07:02:58.253Z,93159.66
2022-08-03T07:05:42.489Z,93161.44
2022-08-03T07:08:33.413Z,93159.75
2022-08-03T07:11:17.426Z,93167.97
2022-08-03T07:14:00.579Z,93164.75
2022-08-03T07:16:43.687Z,93164.09
2022-08-03T07:19:28.139Z,93165.06
2022-08-03T07:22:11.567Z,93170.59
2022-08-03T07:24:54.834Z,93163.25
2022-08-03T07:27:38.454Z,93171.47
2022-08-03T07:30:21.487Z,93166.16
2022-08-03T07:33:05.162Z,93163.22
2022-08-03T07:35:49.587Z,93166.59
2022-08-03T07:38:32.608Z,93165.94
2022-08-03T07:41:15.710Z,93171.31
2022-08-03T07:43:58.835Z,93168.63
2022-08-03T07:46:44.311Z,93171.88
2022-08-03T07:49:28.028Z,93167.72
2022-08-03T07:52:29.682Z,93177.09
2022-08-03T07:55:12.792Z,93167.38
2022-08-03T07:58:06.500Z,93159.41
2022-08-03T08:00:51.061Z,93167.53
2022-08-03T08:03:52.222Z,93168.84
2022-08-03T08:06:35.604Z,93163.50
2022-08-03T08:09:20.140Z,93169.66
2022-08-03T08:12:03.148Z,93163.53
2022-08-03T08:14:46.863Z,93166.25
2022-08-03T08:17:30.066Z,93169.00
2022-08-03T08:20:16.498Z,93164.69
2022-08-03T08:23:22.307Z,93168.03
2022-08-03T08:26:14.237Z,93162.09
2022-08-03T08:28:57.283Z,93165.66
2022-08-03T08:31:40.375Z,93158.09
2022-08-03T08:34:23.422Z,93156.63
2022-08-03T08:37:06.571Z,93161.78
2022-08-03T08:39:49.665Z,93152.19
2022-08-03T08:42:34.194Z,93157.69
2022-08-03T08:45:18.855Z,93161.34
2022-08-03T08:48:08.086Z,93162.00
2022-08-03T08:50:55.238Z,93162.69
2022-08-03T08:53:40.386Z,93160.50
2022-08-03T08:56:26.702Z,93159.56
2022-08-03T08:59:11.535Z,93154.78
2022-08-03T09:01:58.447Z,93161.28
2022-08-03T09:04:41.922Z,93164.34
2022-08-03T09:07:25.122Z,93155.63
2022-08-03T09:10:12.853Z,93153.19
2022-08-03T09:12:56.218Z,93157.63
2022-08-03T09:15:42.383Z,93160.72
2022-08-03T09:18:44.701Z,93161.03
2022-08-03T09:21:32.006Z,93163.13
2022-08-03T09:24:37.203Z,93160.19
2022-08-03T09:27:23.020Z,93167.78
2022-08-03T09:30:33.559Z,93166.44
2022-08-03T09:33:19.473Z,93168.34
2022-08-03T09:36:02.388Z,93172.00
2022-08-03T09:39:02.777Z,93168.06
2022-08-03T09:41:48.231Z,93160.66
2022-08-03T09:44:35.399Z,93157.75
2022-08-03T09:47:29.298Z,93165.41
2022-08-03T09:50:13.860Z,93165.72
2022-08-03T09:53:03.066Z,93157.50
2022-08-03T09:56:35.531Z,93162.00
2022-08-03T09:58:59.813Z,93160.84
2022-08-03T10:01:42.964Z,93160.19
2022-08-03T10:04:26.965Z,93155.81
2022-08-03T10:07:12.173Z,93159.84
2022-08-03T10:09:57.755Z,93166.56
2022-08-03T10:13:01.684Z,93158.63
2022-08-03T10:16:23.663Z,93158.44
2022-08-03T10:18:48.218Z,93147.25
2022-08-03T10:21:35.865Z,93153.63
2022-08-03T10:24:26.395Z,93159.41
2022-08-03T10:27:12.383Z,93148.53
2022-08-03T10:29:57.610Z,93149.31
2022-08-03T10:32:43.181Z,93148.50
2022-08-03T10:35:27.227Z,93140.72
2022-08-03T10:38:17.772Z,93138.53
2022-08-03T10:41:03.162Z,93149.13
2022-08-03T10:43:50.622Z,93139.03
2022-08-03T10:46:36.134Z,93144.84
2022-08-03T10:49:35.358Z,93136.53
2022-08-03T10:52:32.919Z,93140.09
2022-08-03T10:55:49.436Z,93136.44
2022-08-03T10:58:57.903Z,93124.56
2022-08-03T11:02:00.153Z,93127.78
2022-08-03T11:04:45.280Z,93125.47
2022-08-03T11:07:28.368Z,93126.47
2022-08-03T11:10:31.248Z,93121.88
2022-08-03T11:13:17.601Z,93123.19
2022-08-03T11:16:21.943Z,93123.38
2022-08-03T11:19:07.277Z,93124.78
2022-08-03T11:21:55.411Z,93123.00
2022-08-03T11:25:00.657Z,93123.88
2022-08-03T11:27:43.855Z,93118.25
2022-08-03T11:30:29.160Z,93119.34
2022-08-03T11:33:30.649Z,93119.47
2022-08-03T11:36:32.043Z,93119.31
2022-08-03T11:39:17.269Z,93124.28
2022-08-03T11:42:00.411Z,93119.94
2022-08-03T11:44:47.515Z,93118.47
2022-08-03T11:47:31.134Z,93115.59
2022-08-03T11:50:17.339Z,93119.19
2022-08-03T11:53:00.509Z,93116.56
2022-08-03T11:55:44.467Z,93124.66
2022-08-03T11:59:17.465Z,93119.31
2022-08-03T12:01:31.731Z,93121.09
2022-08-03T12:04:17.261Z,93118.53
2022-08-03T12:07:02.512Z,93115.84
2022-08-03T12:10:03.136Z,93114.06
2022-08-03T12:12:46.796Z,93113.75
2022-08-03T12:15:34.009Z,93112.19
2022-08-03T12:18:20.682Z,93108.22
2022-08-03T12:21:09.467Z,93108.13
2022-08-03T12:23:59.032Z,93106.22
2022-08-03T12:26:58.251Z,93109.03
2022-08-03T12:29:42.898Z,93105.94
2022-08-03T12:32:40.325Z,93100.84
2022-08-03T12:35:24.945Z,93103.41
2022-08-03T12:38:08.241Z,93104.69
2022-08-03T12:41:04.964Z,93096.63
2022-08-03T12:43:50.304Z,93099.16
2022-08-03T12:46:35.948Z,93098.06
2022-08-03T12:49:19.728Z,93098.81
2022-08-03T12:52:07.217Z,93094.22
2022-08-03T12:54:57.734Z,93097.69
2022-08-03T12:57:45.289Z,93093.78
2022-08-03T13:00:31.398Z,93092.28
2022-08-03T13:03:42.112Z,93090.75
2022-08-03T13:06:20.375Z,93084.34
2022-08-03T13:09:05.924Z,93087.16
2022-08-03T13:12:05.755Z,93080.13
2022-08-03T13:14:54.010Z,93085.03
2022-08-03T13:17:37.081Z,93078.44
2022-08-03T13:20:22.148Z,93073.75
2022-08-03T13:23:10.084Z,93084.66
2022-08-03T13:25:56.891Z,93080.22
2022-08-03T13:28:40.090Z,93080.44
2022-08-03T13:31:24.489Z,93074.16
2022-08-03T13:34:08.815Z,93074.41
2022-08-03T13:37:09.265Z,93077.63
2022-08-03T13:39:58.996Z,93067.78
2022-08-03T13:42:43.591Z,93066.75
2022-08-03T13:45:27.577Z,93065.69
2022-08-03T13:48:12.272Z,93062.72
2022-08-03T13:50:55.453Z,93067.44
2022-08-03T13:53:38.625Z,93058.13
2022-08-03T13:56:21.747Z,93053.69
2022-08-03T13:59:04.897Z,93052.56
2022-08-03T14:01:55.422Z,93052.25
2022-08-03T14:04:40.632Z,93043.16
2022-08-03T14:07:23.743Z,93053.78
2022-08-03T14:10:07.798Z,93046.38
2022-08-03T14:12:50.912Z,93041.00
2022-08-03T14:15:37.336Z,93044.16
2022-08-03T14:18:27.789Z,93051.09
2022-08-03T14:21:14.330Z,93046.66
2022-08-03T14:23:57.668Z,93053.09
2022-08-03T14:26:41.036Z,93045.03
2022-08-03T14:29:24.149Z,93043.13
2022-08-03T14:32:09.787Z,93042.38
2022-08-03T14:34:55.371Z,93046.31
2022-08-03T14:37:39.859Z,93035.47
2022-08-03T14:40:23.316Z,93040.31
2022-08-03T14:43:06.443Z,93045.81
2022-08-03T14:45:52.261Z,93047.06
2022-08-03T14:50:10.362Z,93038.84
2022-08-03T14:51:38.682Z,93039.78
2022-08-03T14:54:36.234Z,93039.03
2022-08-03T14:57:19.426Z,93035.91
2022-08-03T15:00:02.838Z,93035.88
2022-08-03T15:02:46.031Z,93028.34
2022-08-03T15:05:29.575Z,93022.31
2022-08-03T15:08:12.887Z,93026.94
2022-08-03T15:10:57.351Z,93020.56
2022-08-03T15:13:41.014Z,93022.16
2022-08-03T15:16:24.312Z,93015.00
2022-08-03T15:20:05.564Z,93017.16
2022-08-03T15:22:19.013Z,93021.50
2022-08-03T15:26:04.046Z,93007.13
2022-08-03T15:28:09.078Z,93013.19
2022-08-03T15:30:53.115Z,93016.53
2022-08-03T15:33:36.346Z,93013.13
2022-08-03T15:36:19.867Z,93006.72
2022-08-03T15:39:02.973Z,93009.63
2022-08-03T15:41:46.151Z,92999.13
2022-08-03T15:44:30.720Z,93000.06
2022-08-03T15:47:13.855Z,93002.25
2022-08-03T15:49:57.142Z,93004.25
2022-08-03T15:52:40.337Z,93001.31
2022-08-03T15:55:23.777Z,92998.31
2022-08-03T15:59:09.842Z,92989.59
2022-08-03T16:01:14.315Z,93000.06
2022-08-03T16:04:00.901Z,92992.66
2022-08-03T16:06:44.374Z,93000.94
2022-08-03T16:09:43.165Z,92989.69
2022-08-03T16:12:27.069Z,92996.19
2022-08-03T16:15:11.570Z,92993.44
2022-08-03T16:17:56.159Z,92996.94
2022-08-03T16:20:39.265Z,92999.13
2022-08-03T16:23:25.661Z,92997.66
2022-08-03T16:26:13.543Z,92989.75
2022-08-03T16:28:56.701Z,92991.69
2022-08-03T16:31:39.803Z,92988.59
2022-08-03T16:34:35.711Z,92993.47
2022-08-03T16:37:36.947Z,92991.09
2022-08-03T16:40:21.267Z,92990.34
2022-08-03T16:43:18.135Z,92990.97
2022-08-03T16:46:02.273Z,92992.03
2022-08-03T16:48:45.518Z,92995.22
2022-08-03T16:51:40.417Z,92991.56
2022-08-03T16:54:33.152Z,92988.13
2022-08-03T16:57:29.717Z,92993.47
2022-08-03T17:00:33.559Z,92994.28
2022-08-03T17:03:24.419Z,92991.34
2022-08-03T17:06:09.563Z,92994.56
2022-08-03T17:08:55.304Z,92992.44
2022-08-03T17:11:47.612Z,92998.84
2022-08-03T17:14:31.052Z,92996.72
2022-08-03T17:17:17.607Z,92996.22
2022-08-03T17:20:04.504Z,92993.31
2022-08-03T17:22:56.878Z,92991.94
2022-08-03T17:26:02.145Z,92997.50
2022-08-03T17:28:57.711Z,92990.38
2022-08-03T17:31:48.964Z,92995.91
2022-08-03T17:34:33.184Z,93004.66
2022-08-03T17:37:50.692Z,92999.06
2022-08-03T17:40:20.241Z,93007.78
2022-08-03T17:44:13.937Z,93005.94
2022-08-03T17:46:12.283Z,93004.56
2022-08-03T17:48:55.384Z,93002.16
2022-08-03T17:51:46.215Z,93001.06
2022-08-03T17:55:54.993Z,93001.56
2022-08-03T17:58:02.459Z,93008.94
2022-08-03T18:02:00.315Z,93009.13
2022-08-03T18:04:13.638Z,93010.66
2022-08-03T18:06:59.268Z,93015.38
2022-08-03T18:10:06.386Z,93018.25
2022-08-03T18:12:55.056Z,93015.56
2022-08-03T18:15:43.605Z,93017.06
2022-08-03T18:18:35.790Z,93018.84
2022-08-03T18:21:18.938Z,93025.09
2022-08-03T18:24:05.239Z,93022.59
2022-08-03T18:26:50.252Z,93027.50
2022-08-03T18:29:34.421Z,93017.13
2022-08-03T18:32:17.610Z,93022.81
2022-08-03T18:35:04.200Z,93016.28
2022-08-03T18:37:51.979Z,93020.56
2022-08-03T18:40:35.445Z,93013.03
2022-08-03T18:43:46.699Z,93020.59
2022-08-03T18:46:46.486Z,93021.03
2022-08-03T18:49:41.378Z,93017.28
2022-08-03T18:52:32.066Z,93025.13
2022-08-03T18:55:27.099Z,93028.88
2022-08-03T18:58:22.619Z,93031.81
2022-08-03T19:02:00.827Z,93036.31
2022-08-03T19:04:26.819Z,93034.63
2022-08-03T19:07:11.171Z,93031.69
2022-08-03T19:10:00.289Z,93032.75
2022-08-03T19:12:52.369Z,93035.59
2022-08-03T19:15:41.549Z,93037.72
2022-08-03T19:18:37.136Z,93044.25
2022-08-03T19:21:20.342Z,93035.19
2022-08-03T19:24:09.881Z,93035.72
2022-08-03T19:26:56.445Z,93048.56
2022-08-03T19:29:58.649Z,93048.25
2022-08-03T19:32:48.294Z,93043.72
2022-08-03T19:35:54.638Z,93047.88
2022-08-03T19:38:36.731Z,93035.91
2022-08-03T19:41:20.501Z,93043.72
2022-08-03T19:44:07.827Z,93040.22
2022-08-03T19:46:55.139Z,93049.41
2022-08-03T19:50:02.789Z,93041.44
2022-08-03T19:52:47.807Z,93042.94
2022-08-03T19:55:33.876Z,93042.88
2022-08-03T19:58:28.577Z,93045.19
2022-08-03T20:01:19.216Z,93040.34
2022-08-03T20:04:03.153Z,93040.16
2022-08-03T20:06:47.101Z,93041.56
2022-08-03T20:09:34.014Z,93036.47
2022-08-03T20:12:17.264Z,93045.84
2022-08-03T20:15:11.091Z,93043.16
2022-08-03T20:17:58.773Z,93047.75
2022-08-03T20:20:42.145Z,93045.03
2022-08-03T20:23:37.374Z,93038.41
2022-08-03T20:26:21.094Z,93043.56
2022-08-03T20:29:10.010Z,93043.66
2022-08-03T20:31:53.323Z,93046.66
2022-08-03T20:34:40.366Z,93041.75
2022-08-03T20:37:24.058Z,93048.38
2022-08-03T20:40:08.411Z,93049.19
2022-08-03T20:42:52.083Z,93047.34
2022-08-03T20:45:58.589Z,93041.38
2022-08-03T20:48:38.135Z,93038.44
2022-08-03T20:51:50.124Z,93043.50
2022-08-03T20:54:30.627Z,93046.72
2022-08-03T20:57:14.919Z,93043.75
2022-08-03T20:59:58.933Z,93047.31
2022-08-03T21:02:42.315Z,93041.94
2022-08-03T21:05:30.890Z,93046.63
2022-08-03T21:08:32.578Z,93047.09
2022-08-03T21:11:19.004Z,93038.09
2022-08-03T21:14:07.240Z,93047.00
2022-08-03T21:16:52.441Z,93049.06
2022-08-03T21:19:38.560Z,93041.63
2022-08-03T21:22:38.059Z,93037.66
2022-08-03T21:25:25.645Z,93043.94
2022-08-03T21:28:08.855Z,93043.56
2022-08-03T21:30:54.481Z,93035.69
2022-08-03T21:33:37.624Z,93039.59
2022-08-03T21:36:24.255Z,93041.03
2022-08-03T21:39:09.472Z,93041.84
2022-08-03T21:41:54.729Z,93042.06
2022-08-03T21:44:37.956Z,93038.66
2022-08-03T21:47:23.813Z,93033.06
2022-08-03T21:50:10.398Z,93029.06
2022-08-03T21:52:53.996Z,93033.97
2022-08-03T21:55:39.705Z,93041.19
2022-08-03T21:58:29.921Z,93039.56
2022-08-03T22:01:14.813Z,93043.91
2022-08-03T22:03:58.721Z,93039.91
2022-08-03T22:06:43.873Z,93042.19
2022-08-03T22:09:27.062Z,93047.88
2022-08-03T22:12:10.450Z,93039.09
2022-08-03T22:15:00.319Z,93046.63
2022-08-03T22:17:56.084Z,93044.91
2022-08-03T22:20:40.914Z,93038.97
2022-08-03T22:23:26.648Z,93041.47
2022-08-03T22:26:15.313Z,93043.50
2022-08-03T22:28:59.514Z,93047.78
2022-08-03T22:31:57.498Z,93045.28
2022-08-03T22:34:46.481Z,93046.88
2022-08-03T22:37:31.364Z,93050.16
2022-08-03T22:40:16.026Z,93054.47
2022-08-03T22:42:59.022Z,93052.22
2022-08-03T22:46:06.394Z,93052.22
2022-08-03T22:48:49.923Z,93051.19
2022-08-03T22:51:34.413Z,93044.91
2022-08-03T22:54:17.910Z,93053.00
2022-08-03T22:57:01.781Z,93048.00
2022-08-03T22:59:47.257Z,93048.56
2022-08-03T23:02:30.979Z,93044.47
2022-08-03T23:06:00.348Z,93046.28
2022-08-03T23:08:24.954Z,93050.97
2022-08-03T23:11:08.899Z,93040.34
2022-08-03T23:13:56.482Z,93050.03
2022-08-03T23:16:41.558Z,93042.84
2022-08-03T23:19:27.532Z,93037.81
2022-08-03T23:22:29.741Z,93035.19
2022-08-03T23:25:13.536Z,93032.34
2022-08-03T23:28:05.186Z,93037.81
2022-08-03T23:30:51.452Z,93035.41
2022-08-03T23:33:38.128Z,93039.84
2022-08-03T23:36:30.704Z,93030.38
2022-08-03T23:39:18.279Z,93035.03
2022-08-03T23:42:03.079Z,93030.84
2022-08-03T23:44:46.479Z,93036.53
2022-08-03T23:47:46.657Z,93036.75
2022-08-03T23:50:41.398Z,93036.16
2022-08-03T23:53:29.898Z,93029.53
2022-08-03T23:56:24.969Z,93026.13
2022-08-03T23:59:13.867Z,93023.16
